メインページ
METAR-TAF:

METAR-TAF

空港 :

ラルナカ国際空港

ラルナカ, キプロス

緯度: 34-53N, 経度: 033-38E, 海抜: 2m

現時点の気象観測

当レポートは14分前の09:00(UTC)に作成
の風 12kt
気温 29°C
湿度 45%
気圧 1013 hPa
視程10km以上
高度2500ftの雲はほとんどない

METAR: LCLK 200900Z 19012KT 9999 FEW025 29/16 Q1013 NOSIG

時間: 12:14 (09:14 UTC)

予報

当レポートは3時間44分前の05:30(UTC)に作成
予報は20日の 06時(UTC)から 21日の 06時(UTC)まで有効
南/南東の風 6kt
視程10km以上
高度2500ftの雲はほとんどない
20日の 07時(UTC)から 20日の 10時(UTC)まで徐々に
南/南西の風 18kt
20日の 17時(UTC)から 20日の 20時(UTC)まで徐々に
西の風 8kt

TAF: LCLK 200530Z 2006/2106 15006KT 9999 FEW025 BECMG 2007/2010 21018KT BECMG 2017/2020 27008KT

4,000以上の空港の気象観測と天気予報(METAR報とTAF報)

利用可能な観測所は地図上に黄色い丸と赤い丸で示す。

丸の上にカーソルを重ねると観測所名を参照できる。

次にクリックすると気象観測と天気予報を参照できる。

マップの切り替え:黒色「×」印の緑ボタンをクリックして拡大、「-」印の緑ボタンをクリックして縮小、緑色の三角印をクリックして隣りの地図に切り替え


METAR-TAF: